createdAt,value
2022-11-29T00:01:52.038Z,37.88
2022-11-29T00:04:20.635Z,40.13
2022-11-29T00:06:54.213Z,38.50
2022-11-29T00:09:27.586Z,39.40
2022-11-29T00:12:12.571Z,37.60
2022-11-29T00:14:40.034Z,38.85
2022-11-29T00:17:07.304Z,38.20
2022-11-29T00:19:37.144Z,39.60
2022-11-29T00:22:04.672Z,37.80
2022-11-29T00:24:32.641Z,39.17
2022-11-29T00:26:59.820Z,39.13
2022-11-29T00:29:29.658Z,39.13
2022-11-29T00:31:56.451Z,40.45
2022-11-29T00:34:26.405Z,40.20
2022-11-29T00:36:53.239Z,40.10
2022-11-29T00:39:23.219Z,40.38
2022-11-29T00:41:50.034Z,40.35
2022-11-29T00:44:20.169Z,41.22
2022-11-29T00:46:48.248Z,42.58
2022-11-29T00:49:19.579Z,41.30
2022-11-29T00:51:46.997Z,42.28
2022-11-29T00:54:13.851Z,41.42
2022-11-29T00:56:40.698Z,42.10
2022-11-29T00:59:07.503Z,41.65
2022-11-29T01:01:34.361Z,42.47
2022-11-29T01:04:02.239Z,42.58
2022-11-29T01:06:29.143Z,43.35
2022-11-29T01:08:55.973Z,42.10
2022-11-29T01:11:25.804Z,42.10
2022-11-29T01:13:56.765Z,44.78
2022-11-29T01:16:24.115Z,45.70
2022-11-29T01:18:50.924Z,46.20
2022-11-29T01:21:22.590Z,46.72
2022-11-29T01:23:53.581Z,48.33
2022-11-29T01:26:23.647Z,44.35
2022-11-29T01:28:52.377Z,45.55
2022-11-29T01:31:25.183Z,44.17
2022-11-29T01:34:01.146Z,41.63
2022-11-29T01:36:28.479Z,42.97
2022-11-29T01:38:55.634Z,44.35
2022-11-29T01:41:25.242Z,45.47
2022-11-29T01:44:29.714Z,43.63
2022-11-29T01:46:57.734Z,43.95
2022-11-29T01:49:47.509Z,44.75
2022-11-29T01:52:22.703Z,45.47
2022-11-29T01:54:52.673Z,46.63
2022-11-29T01:57:20.954Z,44.65
2022-11-29T01:59:53.531Z,44.97
2022-11-29T02:02:27.239Z,46.08
2022-11-29T02:04:54.436Z,45.80
2022-11-29T02:07:21.154Z,45.65
2022-11-29T02:09:47.770Z,47.42
2022-11-29T02:12:29.958Z,47.10
2022-11-29T02:15:08.929Z,49.17
2022-11-29T02:18:09.892Z,47.10
2022-11-29T02:20:51.868Z,50.25
2022-11-29T02:23:49.261Z,48.25
2022-11-29T02:26:53.592Z,51.42
2022-11-29T02:29:51.555Z,46.95
2022-11-29T02:32:46.793Z,48.10
2022-11-29T02:35:38.471Z,46.83
2022-11-29T02:38:23.881Z,47.58
2022-11-29T02:41:05.490Z,46.08
2022-11-29T02:43:59.192Z,45.70
2022-11-29T02:46:44.651Z,43.08
2022-11-29T02:49:29.923Z,44.22
2022-11-29T02:52:07.867Z,44.80
2022-11-29T02:55:13.299Z,43.67
2022-11-29T02:57:57.703Z,43.15
2022-11-29T03:00:25.025Z,46.28
2022-11-29T03:02:52.066Z,43.25
2022-11-29T03:05:22.712Z,43.58
2022-11-29T03:08:22.970Z,42.05
2022-11-29T03:10:58.881Z,41.60
2022-11-29T03:13:48.334Z,42.28
2022-11-29T03:16:28.749Z,41.35
2022-11-29T03:19:40.131Z,44.42
2022-11-29T03:22:31.894Z,44.75
2022-11-29T03:25:01.555Z,45.45
2022-11-29T03:27:53.326Z,45.92
2022-11-29T03:30:21.761Z,45.47
2022-11-29T03:33:13.709Z,44.22
2022-11-29T03:35:48.514Z,43.72
2022-11-29T03:38:26.077Z,44.38
2022-11-29T03:41:31.480Z,44.45
2022-11-29T03:44:20.283Z,44.65
2022-11-29T03:46:58.859Z,47.72
2022-11-29T03:49:34.659Z,44.13
2022-11-29T03:52:01.377Z,45.35
2022-11-29T03:54:49.651Z,45.88
2022-11-29T03:57:23.554Z,45.03
2022-11-29T04:00:01.595Z,46.35
2022-11-29T04:02:56.726Z,47.17
2022-11-29T04:05:48.334Z,46.33
2022-11-29T04:09:01.743Z,44.27
2022-11-29T04:11:55.030Z,45.95
2022-11-29T04:15:11.578Z,48.58
2022-11-29T04:18:07.771Z,46.42
2022-11-29T04:20:53.238Z,44.80
2022-11-29T04:23:29.163Z,45.55
2022-11-29T04:26:35.790Z,46.10
2022-11-29T04:29:15.575Z,44.78
2022-11-29T04:31:48.362Z,42.67
2022-11-29T04:34:30.051Z,43.92
2022-11-29T04:37:08.148Z,42.20
2022-11-29T04:40:16.681Z,46.88
2022-11-29T04:43:35.493Z,44.85
2022-11-29T04:46:11.319Z,42.90
2022-11-29T04:49:03.838Z,45.22
2022-11-29T04:54:31.708Z,37.22
2022-11-29T04:57:13.875Z,36.03
2022-11-29T05:00:10.198Z,32.95
2022-11-29T05:03:00.603Z,34.08
2022-11-29T05:05:42.166Z,32.13
2022-11-29T05:08:39.567Z,32.80
2022-11-29T05:11:28.050Z,34.88
2022-11-29T05:14:25.445Z,33.20
2022-11-29T05:17:23.719Z,32.97
2022-11-29T05:20:33.131Z,34.22
2022-11-29T05:23:22.486Z,32.97
2022-11-29T05:26:01.921Z,32.60
2022-11-29T05:28:47.843Z,34.08
2022-11-29T05:31:44.575Z,32.03
2022-11-29T05:34:35.135Z,32.78
2022-11-29T05:37:23.774Z,33.47
2022-11-29T05:40:24.849Z,32.28
2022-11-29T05:43:18.032Z,34.20
2022-11-29T05:46:02.269Z,34.58
2022-11-29T05:48:37.778Z,34.10
2022-11-29T05:51:37.435Z,34.42
2022-11-29T05:54:22.932Z,34.58
2022-11-29T05:57:26.370Z,34.97
2022-11-29T06:00:04.258Z,34.67
2022-11-29T06:02:57.593Z,36.25
2022-11-29T06:05:33.552Z,35.88
2022-11-29T06:08:29.520Z,37.40
2022-11-29T06:11:06.744Z,40.08
2022-11-29T06:14:05.644Z,40.40
2022-11-29T06:16:41.543Z,41.30
2022-11-29T06:19:33.145Z,40.08
2022-11-29T06:22:21.087Z,42.40
2022-11-29T06:25:39.616Z,42.50
2022-11-29T06:28:15.313Z,41.63
2022-11-29T06:31:15.225Z,45.38
2022-11-29T06:34:01.147Z,45.20
2022-11-29T06:36:50.877Z,45.30
2022-11-29T06:39:17.825Z,46.03
2022-11-29T06:41:45.200Z,46.67
2022-11-29T06:44:12.687Z,46.67
2022-11-29T06:47:09.446Z,46.75
2022-11-29T06:49:46.930Z,47.90
2022-11-29T06:52:42.176Z,49.13
2022-11-29T06:55:24.765Z,46.00
2022-11-29T06:58:12.907Z,47.72
2022-11-29T07:00:56.972Z,46.13
2022-11-29T07:04:01.446Z,45.58
2022-11-29T07:06:29.049Z,45.67
2022-11-29T07:09:02.001Z,46.15
2022-11-29T07:11:29.377Z,46.92
2022-11-29T07:13:58.832Z,47.78
2022-11-29T07:17:04.216Z,48.05
2022-11-29T07:19:55.751Z,44.53
2022-11-29T07:22:57.863Z,46.87
2022-11-29T07:25:24.640Z,44.90
2022-11-29T07:28:01.672Z,45.88
2022-11-29T07:30:57.155Z,44.85
2022-11-29T07:33:56.511Z,44.67
2022-11-29T07:36:34.441Z,44.72
2022-11-29T07:39:47.044Z,46.40
2022-11-29T07:42:29.490Z,44.10
2022-11-29T07:45:07.171Z,44.92
2022-11-29T07:47:37.043Z,46.40
2022-11-29T07:50:07.318Z,47.20
2022-11-29T07:52:36.669Z,46.42
2022-11-29T07:55:06.681Z,45.10
2022-11-29T07:57:33.472Z,45.47
2022-11-29T08:00:00.634Z,46.08
2022-11-29T08:02:31.810Z,48.00
2022-11-29T08:04:59.077Z,46.80
2022-11-29T08:07:26.197Z,46.97
2022-11-29T08:09:53.489Z,49.05
2022-11-29T08:12:20.384Z,50.10
2022-11-29T08:14:47.524Z,51.17
2022-11-29T08:17:14.563Z,52.00
2022-11-29T08:19:41.373Z,52.45
2022-11-29T08:22:08.213Z,51.95
2022-11-29T08:24:34.992Z,52.72
2022-11-29T08:27:03.806Z,50.22
2022-11-29T08:29:30.822Z,52.70
2022-11-29T08:31:57.831Z,54.05
2022-11-29T08:34:25.078Z,51.85
2022-11-29T08:36:55.247Z,52.03
2022-11-29T08:39:25.512Z,51.03
2022-11-29T08:41:55.109Z,53.83
2022-11-29T08:44:24.843Z,51.22
2022-11-29T08:47:10.262Z,51.97
2022-11-29T08:49:57.041Z,49.40
2022-11-29T08:52:42.756Z,49.92
2022-11-29T08:55:09.777Z,51.35
2022-11-29T08:57:40.848Z,50.45
2022-11-29T09:00:11.391Z,51.63
2022-11-29T09:02:38.860Z,51.67
2022-11-29T09:05:07.378Z,51.78
2022-11-29T09:07:34.346Z,51.25
2022-11-29T09:10:05.636Z,52.08
2022-11-29T09:12:33.194Z,52.40
2022-11-29T09:15:01.467Z,51.22
2022-11-29T09:17:30.973Z,53.58
2022-11-29T09:19:57.982Z,53.72
2022-11-29T09:22:27.791Z,52.88
2022-11-29T09:24:56.719Z,52.75
2022-11-29T09:27:25.006Z,52.50
2022-11-29T09:29:54.171Z,51.25
2022-11-29T09:32:24.703Z,51.92
2022-11-29T09:34:51.537Z,51.17
2022-11-29T09:37:18.620Z,50.85
2022-11-29T09:39:49.069Z,52.63
2022-11-29T09:42:34.277Z,50.60
2022-11-29T09:45:11.351Z,50.38
2022-11-29T09:48:09.838Z,52.53
2022-11-29T09:50:47.446Z,51.75
2022-11-29T09:53:21.031Z,50.45
2022-11-29T09:56:07.705Z,49.80
2022-11-29T09:58:58.985Z,47.65
2022-11-29T10:01:38.235Z,52.05
2022-11-29T10:04:12.528Z,51.42
2022-11-29T10:06:45.295Z,51.53
2022-11-29T10:09:23.632Z,48.80
2022-11-29T10:11:53.385Z,47.38
2022-11-29T10:14:25.192Z,48.17
2022-11-29T10:17:00.462Z,44.72
2022-11-29T10:19:36.654Z,46.03
2022-11-29T10:22:13.310Z,45.90
2022-11-29T10:24:41.561Z,46.67
2022-11-29T10:27:18.633Z,46.70
2022-11-29T10:29:49.075Z,46.15
2022-11-29T10:32:15.944Z,43.05
2022-11-29T10:34:43.777Z,44.40
2022-11-29T10:37:16.804Z,44.55
2022-11-29T10:39:58.814Z,44.05
2022-11-29T10:42:46.989Z,44.80
2022-11-29T10:45:21.105Z,44.58
2022-11-29T10:47:49.974Z,43.50
2022-11-29T10:50:22.825Z,43.88
2022-11-29T10:52:49.450Z,44.78
2022-11-29T10:55:17.653Z,43.97
2022-11-29T10:58:13.940Z,43.42
2022-11-29T11:01:07.786Z,41.90
2022-11-29T11:03:52.832Z,40.58
2022-11-29T11:06:24.552Z,37.70
2022-11-29T11:09:12.516Z,39.38
2022-11-29T11:11:40.233Z,38.67
2022-11-29T11:14:22.085Z,37.20
2022-11-29T11:16:49.592Z,40.67
2022-11-29T11:19:35.290Z,38.25
2022-11-29T11:22:04.438Z,40.33
2022-11-29T11:24:40.812Z,39.22
2022-11-29T11:27:11.129Z,41.38
2022-11-29T11:29:43.555Z,41.50
2022-11-29T11:34:53.572Z,39.00
2022-11-29T11:37:32.108Z,40.70
2022-11-29T11:40:17.944Z,40.00
2022-11-29T11:42:45.819Z,40.20
2022-11-29T11:45:13.439Z,40.38
2022-11-29T11:47:53.217Z,40.05
2022-11-29T11:50:34.512Z,37.75
2022-11-29T11:53:17.745Z,36.60
2022-11-29T11:56:10.834Z,37.35
2022-11-29T11:58:43.884Z,37.80
2022-11-29T12:01:26.925Z,37.55
2022-11-29T12:04:10.737Z,38.78
2022-11-29T12:06:53.905Z,37.92
2022-11-29T12:09:30.528Z,36.70
2022-11-29T12:12:20.264Z,36.47
2022-11-29T12:14:47.402Z,36.70
2022-11-29T12:17:44.106Z,35.75
2022-11-29T12:20:26.372Z,33.95
2022-11-29T12:25:39.741Z,36.30
2022-11-29T12:28:15.760Z,34.03
2022-11-29T12:31:12.882Z,36.55
2022-11-29T12:34:10.542Z,33.90
2022-11-29T12:37:02.784Z,32.65
2022-11-29T12:39:32.663Z,34.38
2022-11-29T12:42:35.381Z,37.30
2022-11-29T12:45:02.045Z,35.60
2022-11-29T12:48:18.952Z,35.17
2022-11-29T12:50:58.529Z,35.90
2022-11-29T12:53:49.646Z,36.45
2022-11-29T12:56:41.762Z,35.53
2022-11-29T12:59:32.553Z,36.10
2022-11-29T13:02:11.478Z,35.83
2022-11-29T13:05:11.522Z,37.97
2022-11-29T13:08:15.385Z,36.42
2022-11-29T13:10:41.964Z,37.55
2022-11-29T13:13:27.615Z,36.95
2022-11-29T13:16:02.721Z,37.65
2022-11-29T13:18:29.245Z,37.95
2022-11-29T13:21:14.072Z,37.72
2022-11-29T13:24:09.029Z,38.03
2022-11-29T13:26:38.001Z,36.65
2022-11-29T13:29:07.606Z,35.00
2022-11-29T13:31:37.527Z,36.28
2022-11-29T13:34:29.766Z,35.95
2022-11-29T13:37:27.542Z,37.40
2022-11-29T13:40:07.825Z,38.90
2022-11-29T13:43:09.123Z,38.78
2022-11-29T13:45:46.806Z,37.58
2022-11-29T13:48:37.137Z,36.65
2022-11-29T13:51:27.077Z,37.80
2022-11-29T13:53:55.627Z,39.85
2022-11-29T13:56:42.753Z,38.13
2022-11-29T13:59:17.715Z,37.38
2022-11-29T14:01:51.725Z,37.08
2022-11-29T14:04:39.875Z,37.17
2022-11-29T14:07:18.490Z,39.85
2022-11-29T14:10:08.768Z,37.33
2022-11-29T14:12:56.093Z,37.95
2022-11-29T14:15:28.430Z,37.95
2022-11-29T14:18:02.482Z,36.50
2022-11-29T14:20:29.145Z,36.67
2022-11-29T14:23:05.013Z,37.25
2022-11-29T14:25:54.182Z,37.15
2022-11-29T14:28:20.947Z,38.33
2022-11-29T14:30:58.795Z,38.42
2022-11-29T14:34:08.964Z,37.25
2022-11-29T14:36:59.194Z,36.35
2022-11-29T14:39:31.914Z,36.05
2022-11-29T14:42:01.632Z,35.78
2022-11-29T14:44:32.019Z,34.90
2022-11-29T14:47:03.542Z,34.60
2022-11-29T14:49:31.979Z,36.85
2022-11-29T14:52:18.469Z,34.55
2022-11-29T14:54:54.615Z,35.35
2022-11-29T14:57:47.044Z,34.38
2022-11-29T15:00:24.540Z,35.80
2022-11-29T15:03:19.979Z,36.03
2022-11-29T15:05:54.472Z,35.22
2022-11-29T15:08:30.632Z,35.38
2022-11-29T15:11:00.156Z,33.80
2022-11-29T15:13:33.388Z,35.70
2022-11-29T15:16:08.693Z,37.05
2022-11-29T15:19:00.723Z,34.50
2022-11-29T15:22:28.193Z,35.17
2022-11-29T15:25:02.312Z,34.35
2022-11-29T15:27:29.136Z,33.15
2022-11-29T15:29:56.353Z,35.65
2022-11-29T15:32:31.370Z,36.17
2022-11-29T15:34:58.906Z,36.63
2022-11-29T15:37:35.790Z,36.70
2022-11-29T15:40:14.129Z,35.92
2022-11-29T15:43:23.301Z,34.88
2022-11-29T15:45:54.296Z,36.15
2022-11-29T15:48:22.729Z,35.35
2022-11-29T15:50:58.314Z,35.85
2022-11-29T15:53:30.790Z,36.05
2022-11-29T15:56:05.722Z,35.65
2022-11-29T15:58:34.738Z,35.38
2022-11-29T16:01:03.136Z,36.30
2022-11-29T16:03:38.090Z,38.53
2022-11-29T16:06:22.657Z,38.17
2022-11-29T16:08:50.214Z,40.92
2022-11-29T16:11:21.195Z,39.33
2022-11-29T16:14:12.878Z,39.40
2022-11-29T16:16:42.089Z,38.45
2022-11-29T16:19:17.104Z,38.85
2022-11-29T16:21:44.616Z,39.15
2022-11-29T16:24:24.784Z,39.08
2022-11-29T16:26:58.366Z,41.17
2022-11-29T16:29:36.220Z,39.85
2022-11-29T16:32:35.119Z,38.47
2022-11-29T16:35:22.314Z,37.45
2022-11-29T16:37:49.259Z,37.03
2022-11-29T16:40:35.594Z,39.08
2022-11-29T16:43:25.261Z,39.35
2022-11-29T16:46:21.575Z,39.55
2022-11-29T16:48:49.779Z,38.85
2022-11-29T16:51:50.417Z,40.45
2022-11-29T16:54:34.496Z,40.35
2022-11-29T16:57:06.432Z,39.08
2022-11-29T16:59:35.314Z,40.03
2022-11-29T17:02:03.030Z,41.80
2022-11-29T17:04:30.204Z,39.60
2022-11-29T17:06:58.248Z,38.72
2022-11-29T17:09:35.788Z,39.58
2022-11-29T17:12:03.181Z,39.50
2022-11-29T17:14:33.632Z,40.20
2022-11-29T17:17:05.568Z,42.83
2022-11-29T17:19:37.860Z,41.35
2022-11-29T17:22:04.985Z,42.60
2022-11-29T17:24:33.335Z,42.35
2022-11-29T17:27:00.373Z,42.15
2022-11-29T17:29:28.074Z,42.13
2022-11-29T17:31:56.630Z,43.33
2022-11-29T17:34:23.402Z,42.15
2022-11-29T17:36:51.765Z,42.22
2022-11-29T17:39:24.919Z,44.65
2022-11-29T17:41:57.066Z,42.13
2022-11-29T17:46:50.757Z,42.20
2022-11-29T17:49:18.884Z,43.70
2022-11-29T17:51:53.580Z,44.47
2022-11-29T17:54:26.462Z,42.13
2022-11-29T17:56:53.302Z,44.72
2022-11-29T17:59:20.825Z,44.80
2022-11-29T18:01:47.868Z,42.58
2022-11-29T18:04:16.837Z,43.65
2022-11-29T18:06:43.934Z,44.00
2022-11-29T18:09:11.489Z,42.53
2022-11-29T18:11:48.090Z,46.83
2022-11-29T18:14:20.079Z,44.33
2022-11-29T18:16:48.457Z,45.50
2022-11-29T18:19:29.039Z,43.67
2022-11-29T18:21:55.869Z,43.65
2022-11-29T18:24:25.707Z,42.92
2022-11-29T18:26:53.918Z,45.63
2022-11-29T18:29:24.940Z,45.60
2022-11-29T18:31:53.254Z,43.80
2022-11-29T18:34:20.251Z,45.35
2022-11-29T18:36:48.660Z,45.22
2022-11-29T18:39:20.440Z,44.22
2022-11-29T18:41:49.957Z,45.53
2022-11-29T18:44:21.775Z,44.72
2022-11-29T18:46:48.997Z,44.50
2022-11-29T18:49:17.992Z,45.38
2022-11-29T18:51:46.445Z,45.95
2022-11-29T18:54:14.687Z,46.03
2022-11-29T18:56:42.291Z,44.60
2022-11-29T18:59:20.311Z,45.28
2022-11-29T19:01:48.238Z,46.38
2022-11-29T19:04:27.830Z,45.97
2022-11-29T19:06:57.890Z,45.60
2022-11-29T19:09:32.886Z,45.63
2022-11-29T19:14:51.017Z,48.25
2022-11-29T19:17:22.575Z,49.22
2022-11-29T19:19:51.650Z,50.25
2022-11-29T19:22:18.434Z,48.80
2022-11-29T19:24:45.307Z,49.10
2022-11-29T19:27:12.730Z,49.75
2022-11-29T19:29:39.997Z,49.13
2022-11-29T19:32:11.483Z,48.60
2022-11-29T19:34:41.506Z,47.35
2022-11-29T19:37:12.458Z,46.67
2022-11-29T19:39:40.323Z,45.75
2022-11-29T19:42:07.172Z,46.17
2022-11-29T19:45:14.828Z,49.15
2022-11-29T19:47:28.622Z,49.70
2022-11-29T19:50:02.053Z,49.72
2022-11-29T19:52:29.465Z,47.97
2022-11-29T19:55:04.277Z,48.50
2022-11-29T19:57:31.031Z,49.83
2022-11-29T19:59:57.772Z,47.47
2022-11-29T20:02:25.297Z,47.63
2022-11-29T20:04:55.638Z,46.88
2022-11-29T20:07:25.926Z,48.17
2022-11-29T20:09:52.679Z,46.30
2022-11-29T20:12:19.388Z,47.05
2022-11-29T20:14:46.712Z,45.58
2022-11-29T20:17:13.661Z,47.13
2022-11-29T20:19:40.454Z,46.58
2022-11-29T20:22:09.489Z,45.80
2022-11-29T20:24:41.229Z,47.58
2022-11-29T20:27:11.854Z,47.92
2022-11-29T20:29:39.985Z,44.80
2022-11-29T20:32:07.261Z,46.88
2022-11-29T20:34:34.128Z,45.35
2022-11-29T20:37:30.419Z,45.15
2022-11-29T20:40:05.685Z,45.10
2022-11-29T20:42:39.278Z,45.92
2022-11-29T20:45:08.819Z,46.97
2022-11-29T20:48:14.871Z,48.22
2022-11-29T20:50:51.927Z,45.88
2022-11-29T20:53:30.855Z,48.40
2022-11-29T20:55:58.304Z,47.40
2022-11-29T20:58:26.636Z,49.33
2022-11-29T21:00:57.702Z,50.25
2022-11-29T21:03:25.191Z,49.65
2022-11-29T21:05:55.009Z,47.35
2022-11-29T21:08:23.174Z,49.20
2022-11-29T21:10:50.627Z,47.53
2022-11-29T21:13:19.817Z,48.60
2022-11-29T21:15:47.068Z,47.03
2022-11-29T21:18:26.185Z,49.17
2022-11-29T21:21:08.519Z,46.17
2022-11-29T21:26:38.646Z,45.35
2022-11-29T21:29:20.035Z,44.10
2022-11-29T21:31:51.707Z,46.70
2022-11-29T21:34:19.478Z,48.75
2022-11-29T21:36:59.781Z,47.20
2022-11-29T21:39:39.953Z,46.80
2022-11-29T21:42:06.611Z,47.50
2022-11-29T21:44:33.494Z,48.65
2022-11-29T21:47:02.366Z,46.38
2022-11-29T21:49:33.772Z,48.95
2022-11-29T21:52:01.264Z,48.67
2022-11-29T21:54:28.931Z,49.25
2022-11-29T21:56:56.228Z,46.70
2022-11-29T21:59:24.965Z,46.63
2022-11-29T22:01:52.805Z,48.97
2022-11-29T22:04:20.378Z,47.53
2022-11-29T22:06:47.523Z,49.47
2022-11-29T22:09:14.369Z,49.30
2022-11-29T22:11:41.251Z,49.03
2022-11-29T22:14:16.271Z,47.05
2022-11-29T22:16:58.019Z,47.97
2022-11-29T22:19:24.803Z,50.28
2022-11-29T22:21:54.092Z,47.85
2022-11-29T22:24:26.012Z,48.08
2022-11-29T22:26:53.665Z,48.90
2022-11-29T22:29:20.762Z,48.42
2022-11-29T22:31:49.787Z,48.80
2022-11-29T22:34:16.965Z,49.38
2022-11-29T22:36:45.693Z,50.45
2022-11-29T22:39:14.931Z,49.17
2022-11-29T22:41:52.265Z,51.10
2022-11-29T22:44:21.593Z,49.72
2022-11-29T22:46:48.546Z,52.90
2022-11-29T22:49:15.534Z,50.08
2022-11-29T22:51:42.469Z,51.25
2022-11-29T22:54:11.767Z,48.45
2022-11-29T22:56:40.469Z,51.75
2022-11-29T22:59:09.487Z,52.80
2022-11-29T23:02:19.181Z,51.20
2022-11-29T23:04:46.153Z,49.58
2022-11-29T23:07:18.077Z,51.33
2022-11-29T23:09:48.001Z,48.88
2022-11-29T23:12:16.424Z,52.40
2022-11-29T23:14:52.956Z,49.97
2022-11-29T23:17:22.887Z,51.05
2022-11-29T23:19:51.342Z,50.63
2022-11-29T23:22:27.600Z,49.00
2022-11-29T23:24:56.771Z,47.03
2022-11-29T23:27:26.299Z,47.60
2022-11-29T23:30:06.059Z,49.63
2022-11-29T23:32:32.780Z,48.35
2022-11-29T23:34:59.573Z,50.38
2022-11-29T23:37:31.454Z,50.15
2022-11-29T23:39:58.343Z,48.60
2022-11-29T23:42:25.809Z,47.00
2022-11-29T23:44:55.725Z,49.10
2022-11-29T23:47:25.953Z,49.60
2022-11-29T23:49:55.255Z,50.70
2022-11-29T23:52:22.036Z,48.83
2022-11-29T23:54:50.233Z,48.35
2022-11-29T23:57:22.323Z,48.80
